Time;durP1;ratioP1;P1;durP2;ratioP2;P2;SDS_P1;SDS_P2;PMS_P1;PMS_P2;Temp;Humidity;BMP_temperature;BMP_pressure;BME280_temperature;BME280_humidity;BME280_pressure;Samples;Min_cycle;Max_cycle;Signal;HPM_P1;HPM_P2
2021/09/19 00:00:08;;;;;;;5.95;3.35;;;;;;;10.12;69.31;102260.56;5073152;28;20024;-79
2021/09/19 00:02:34;;;;;;;5.95;3.13;;;;;;;10.05;69.54;102257.09;5074128;28;20023;-80
2021/09/19 00:04:59;;;;;;;6.03;2.60;;;;;;;9.99;69.78;102252.59;5094467;28;20052;-79
2021/09/19 00:07:25;;;;;;;4.95;2.90;;;;;;;9.92;69.96;102255.41;5095092;28;20020;-80
2021/09/19 00:09:50;;;;;;;3.88;2.97;;;;;;;9.87;69.83;102254.44;5089419;28;20353;-80
2021/09/19 00:12:15;;;;;;;5.63;2.53;;;;;;;9.80;70.15;102246.41;5093486;28;20073;-79
2021/09/19 00:14:41;;;;;;;3.15;2.28;;;;;;;9.74;70.24;102247.34;5075824;28;20020;-79
2021/09/19 00:17:07;;;;;;;3.95;3.00;;;;;;;9.68;70.39;102251.78;5088870;28;20389;-80
2021/09/19 00:19:32;;;;;;;6.13;3.75;;;;;;;9.63;70.59;102251.69;5092343;28;20032;-79
2021/09/19 00:21:59;;;;;;;3.78;2.78;;;;;;;9.57;70.76;102244.41;5056134;28;20036;-79
2021/09/19 00:24:24;;;;;;;8.90;3.10;;;;;;;9.54;71.04;102247.59;5093907;28;20111;-80
2021/09/19 00:26:50;;;;;;;4.18;2.78;;;;;;;9.49;71.16;102244.72;5071830;28;20032;-79
2021/09/19 00:29:15;;;;;;;4.65;2.47;;;;;;;9.45;71.14;102246.28;5093339;28;20603;-80
2021/09/19 00:31:41;;;;;;;5.63;2.80;;;;;;;9.40;71.38;102240.69;5094012;28;20059;-79
2021/09/19 00:34:06;;;;;;;5.30;3.03;;;;;;;9.36;71.44;102248.50;5046476;28;20032;-79
2021/09/19 00:36:31;;;;;;;5.97;3.28;;;;;;;9.33;71.78;102240.78;5094178;28;20066;-80
2021/09/19 00:38:57;;;;;;;3.80;2.85;;;;;;;9.31;71.63;102242.91;5094692;28;20385;-80
2021/09/19 00:41:22;;;;;;;4.57;2.83;;;;;;;9.30;72.00;102250.25;5093566;28;20399;-80
2021/09/19 00:43:48;;;;;;;4.30;2.90;;;;;;;9.29;72.08;102248.56;5089963;28;20032;-79
2021/09/19 00:46:13;;;;;;;6.60;3.45;;;;;;;9.28;72.01;102246.91;5075114;28;22409;-80
2021/09/19 00:48:38;;;;;;;5.60;3.33;;;;;;;9.29;72.17;102250.44;5088125;28;20543;-79
2021/09/19 00:51:04;;;;;;;6.57;2.75;;;;;;;9.28;72.16;102249.63;5088600;28;20024;-79
2021/09/19 00:53:32;;;;;;;5.35;3.08;;;;;;;9.27;72.33;102247.94;5076398;28;20028;-79
2021/09/19 00:55:58;;;;;;;5.40;3.25;;;;;;;9.27;72.50;102247.94;5092952;28;20031;-79
2021/09/19 00:58:23;;;;;;;4.93;3.28;;;;;;;9.30;72.45;102254.81;5090091;28;20110;-79
2021/09/19 01:00:49;;;;;;;4.57;2.97;;;;;;;9.36;72.60;102250.34;5069810;28;20587;-78
2021/09/19 01:03:18;;;;;;;4.95;3.83;;;;;;;9.43;72.77;102253.84;5068333;28;20407;-79
2021/09/19 01:05:44;;;;;;;5.35;2.92;;;;;;;9.49;72.76;102247.47;5059823;28;20444;-79
2021/09/19 01:08:11;;;;;;;4.32;2.53;;;;;;;9.56;72.78;102242.75;5055829;28;20025;-78
2021/09/19 01:10:38;;;;;;;3.75;2.85;;;;;;;9.63;72.55;102254.41;5075111;28;20028;-79
2021/09/19 01:13:03;;;;;;;3.55;2.50;;;;;;;9.69;72.68;102247.19;5055508;28;20490;-78
2021/09/19 01:15:28;;;;;;;6.93;2.58;;;;;;;9.73;72.61;102249.19;5053504;28;20067;-79
2021/09/19 01:17:55;;;;;;;4.75;3.05;;;;;;;9.79;72.42;102244.72;5063294;28;20025;-79
2021/09/19 01:20:20;;;;;;;4.13;2.65;;;;;;;9.83;72.31;102245.09;5035905;28;20025;-79
2021/09/19 01:22:57;;;;;;;4.68;2.60;;;;;;;9.87;72.36;102238.09;5057457;28;20120;-79
2021/09/19 01:25:23;;;;;;;3.90;2.53;;;;;;;9.94;72.35;102247.03;5042729;28;20025;-79
2021/09/19 01:27:49;;;;;;;3.45;2.40;;;;;;;9.95;72.38;102251.38;5058315;28;20461;-79
2021/09/19 01:30:14;;;;;;;4.65;2.45;;;;;;;9.96;72.10;102251.16;5059585;28;20044;-78
2021/09/19 01:32:40;;;;;;;5.97;2.40;;;;;;;10.00;72.50;102246.06;5049945;28;20028;-78
2021/09/19 01:35:06;;;;;;;3.55;2.50;;;;;;;10.03;71.93;102242.88;5051899;28;20462;-78
2021/09/19 01:37:32;;;;;;;4.85;2.60;;;;;;;10.03;72.13;102242.88;5053556;28;20024;-79
2021/09/19 01:39:57;;;;;;;3.42;2.33;;;;;;;10.06;71.85;102242.41;5060444;28;20474;-79
2021/09/19 01:42:25;;;;;;;4.22;2.80;;;;;;;10.07;71.91;102244.09;5042479;28;20402;-79
2021/09/19 01:44:50;;;;;;;3.30;2.30;;;;;;;10.07;71.81;102238.63;5028855;28;20545;-79
2021/09/19 01:47:16;;;;;;;4.15;2.72;;;;;;;10.09;71.60;102241.09;5042875;28;20028;-79
2021/09/19 01:49:46;;;;;;;6.97;2.53;;;;;;;10.09;71.28;102241.94;5057448;28;20026;-79
2021/09/19 01:52:11;;;;;;;4.70;2.60;;;;;;;10.11;71.38;102239.00;5044403;28;20056;-79
2021/09/19 01:54:37;;;;;;;4.28;2.58;;;;;;;10.14;71.12;102242.06;5053821;28;20025;-79
2021/09/19 01:57:02;;;;;;;4.25;2.50;;;;;;;10.16;71.03;102242.66;5045293;28;20021;-78
2021/09/19 01:59:28;;;;;;;5.25;2.65;;;;;;;10.16;71.03;102236.38;5055971;28;20406;-79
2021/09/19 02:01:53;;;;;;;3.55;2.13;;;;;;;10.16;70.65;102237.22;5051683;28;20028;-79
2021/09/19 02:04:18;;;;;;;3.63;2.53;;;;;;;10.15;70.77;102241.03;5052331;28;20033;-79
2021/09/19 02:06:44;;;;;;;3.80;2.25;;;;;;;10.17;70.51;102236.13;5048705;28;20079;-79
2021/09/19 02:09:09;;;;;;;3.38;2.33;;;;;;;10.17;70.39;102238.88;5050650;28;20693;-79
2021/09/19 02:11:34;;;;;;;5.50;2.75;;;;;;;10.17;69.98;102238.88;5053303;28;20039;-80
2021/09/19 02:14:00;;;;;;;3.13;2.20;;;;;;;10.18;69.94;102235.09;5065479;28;20131;-79
2021/09/19 02:16:26;;;;;;;6.43;2.72;;;;;;;10.18;69.88;102237.81;5067815;28;20040;-79
2021/09/19 02:18:51;;;;;;;5.43;1.92;;;;;;;10.19;69.89;102235.91;5070372;28;20032;-79
2021/09/19 02:21:17;;;;;;;3.60;2.17;;;;;;;10.20;69.90;102232.97;5062901;28;20021;-79
2021/09/19 02:23:42;;;;;;;4.13;2.70;;;;;;;10.20;69.48;102222.06;5066312;28;20509;-79
2021/09/19 02:26:08;;;;;;;4.43;1.98;;;;;;;10.21;69.37;102229.16;5069092;28;20082;-79
2021/09/19 02:28:34;;;;;;;4.30;2.13;;;;;;;10.22;69.36;102224.53;5052340;28;20035;-79
2021/09/19 02:30:59;;;;;;;3.42;2.40;;;;;;;10.22;69.19;102224.53;5070226;28;20362;-79
2021/09/19 02:33:25;;;;;;;3.40;2.25;;;;;;;10.22;68.95;102221.81;5071878;28;20020;-78
2021/09/19 02:35:50;;;;;;;2.63;2.00;;;;;;;10.22;68.34;102228.09;5069591;28;20020;-78
2021/09/19 02:38:15;;;;;;;3.35;2.17;;;;;;;10.25;68.95;102217.78;5071024;28;20020;-78
2021/09/19 02:40:42;;;;;;;3.97;2.13;;;;;;;10.26;68.48;102222.16;5066115;28;20414;-79
2021/09/19 02:43:07;;;;;;;3.28;1.83;;;;;;;10.27;68.43;102216.50;5069106;28;20020;-79
2021/09/19 02:45:33;;;;;;;3.17;2.08;;;;;;;10.29;68.19;102219.03;5066473;28;20025;-78
2021/09/19 02:47:58;;;;;;;3.25;1.88;;;;;;;10.29;68.06;102214.38;5069250;28;20386;-79
2021/09/19 02:50:24;;;;;;;5.45;2.53;;;;;;;10.33;68.17;102215.56;5070332;28;20029;-79
2021/09/19 02:52:50;;;;;;;4.20;2.40;;;;;;;10.33;67.93;102220.19;5070184;28;20564;-79
2021/09/19 02:55:16;;;;;;;2.88;2.03;;;;;;;10.33;68.10;102215.56;5051424;28;20028;-80
2021/09/19 02:57:41;;;;;;;4.95;2.00;;;;;;;10.32;67.83;102224.00;5060192;28;20032;-80
2021/09/19 03:00:09;;;;;;;2.45;2.05;;;;;;;10.31;67.96;102223.16;5068386;28;20031;-79
2021/09/19 03:02:35;;;;;;;3.58;2.15;;;;;;;10.31;67.90;102217.72;5051057;28;20092;-80
2021/09/19 03:05:00;;;;;;;5.00;2.28;;;;;;;10.31;67.77;102215.00;5067961;28;20500;-79
2021/09/19 03:07:25;;;;;;;4.25;2.95;;;;;;;10.32;67.94;102213.09;5061924;28;20029;-78
2021/09/19 03:09:51;;;;;;;3.35;2.13;;;;;;;10.32;68.05;102218.53;5069872;28;20025;-79
2021/09/19 03:12:16;;;;;;;4.20;2.53;;;;;;;10.31;68.01;102216.88;5071704;28;20433;-79
2021/09/19 03:14:42;;;;;;;3.20;2.00;;;;;;;10.30;68.01;102220.66;5090174;28;20052;-79
2021/09/19 03:17:07;;;;;;;3.03;2.10;;;;;;;10.29;68.00;102219.03;5089926;28;20542;-79
2021/09/19 03:19:32;;;;;;;4.10;2.53;;;;;;;10.30;68.13;102224.22;5086461;28;20134;-79
2021/09/19 03:21:58;;;;;;;2.88;2.10;;;;;;;10.30;68.29;102226.13;5090062;28;20028;-79
2021/09/19 03:24:23;;;;;;;3.33;1.90;;;;;;;10.30;68.32;102231.56;5090112;28;20020;-79
2021/09/19 03:26:48;;;;;;;4.05;2.50;;;;;;;10.30;67.77;102226.13;5071897;28;20473;-81
2021/09/19 03:29:14;;;;;;;5.40;2.83;;;;;;;10.30;68.36;102228.84;5090622;28;20024;-80
2021/09/19 03:31:39;;;;;;;3.72;2.40;;;;;;;10.30;68.38;102231.56;5065642;28;20033;-79
2021/09/19 03:34:05;;;;;;;3.38;2.40;;;;;;;10.28;68.58;102223.63;5092352;28;20481;-80
2021/09/19 03:36:30;;;;;;;4.72;2.35;;;;;;;10.28;69.00;102234.53;5072489;28;20035;-80
2021/09/19 03:38:55;;;;;;;5.95;2.70;;;;;;;10.28;68.44;102225.53;5076992;28;20184;-80
2021/09/19 03:41:21;;;;;;;3.08;2.45;;;;;;;10.27;68.69;102221.13;5088523;28;20837;-80
2021/09/19 03:43:46;;;;;;;3.50;2.25;;;;;;;10.27;68.57;102226.56;5075660;28;20035;-80
2021/09/19 03:46:13;;;;;;;4.80;2.88;;;;;;;10.26;68.70;102224.88;5071535;28;20047;-80
2021/09/19 03:48:38;;;;;;;3.95;2.55;;;;;;;10.26;68.70;102224.88;5068296;28;20028;-80
2021/09/19 03:51:03;;;;;;;3.30;1.90;;;;;;;10.25;68.84;102226.78;5095243;28;20028;-80
2021/09/19 03:53:29;;;;;;;3.58;2.28;;;;;;;10.24;68.97;102227.88;5076616;28;20145;-80
2021/09/19 03:55:54;;;;;;;5.47;2.30;;;;;;;10.26;68.72;102230.34;5071065;28;20020;-79
2021/09/19 03:58:20;;;;;;;5.97;2.72;;;;;;;10.24;68.86;102216.97;5091425;28;20491;-80
2021/09/19 04:00:45;;;;;;;4.13;2.30;;;;;;;10.23;68.91;102218.88;5094787;28;20060;-80
2021/09/19 04:03:10;;;;;;;4.30;2.13;;;;;;;10.25;68.92;102234.13;5075610;28;20933;-80
2021/09/19 04:05:36;;;;;;;3.20;2.17;;;;;;;10.22;68.75;102222.63;5078909;28;20031;-80
2021/09/19 04:08:03;;;;;;;3.75;2.30;;;;;;;10.22;68.74;102219.09;5065220;28;20033;-80
2021/09/19 04:10:30;;;;;;;5.85;2.85;;;;;;;10.20;68.50;102222.06;5085054;28;20550;-79
2021/09/19 04:12:55;;;;;;;3.65;2.42;;;;;;;10.19;68.53;102220.38;5074146;28;20055;-81
2021/09/19 04:15:20;;;;;;;4.00;2.42;;;;;;;10.19;68.39;102220.38;5084065;28;20385;-80
2021/09/19 04:17:46;;;;;;;4.43;2.33;;;;;;;10.20;68.56;102223.94;5073252;28;20461;-80
2021/09/19 04:20:11;;;;;;;3.30;2.45;;;;;;;10.19;68.58;102225.84;5087492;28;20025;-80
2021/09/19 04:22:37;;;;;;;5.65;2.42;;;;;;;10.19;68.68;102236.75;5077538;28;20059;-80
2021/09/19 04:25:03;;;;;;;4.40;2.42;;;;;;;10.20;68.49;102230.25;5091814;28;20031;-80
2021/09/19 04:27:28;;;;;;;4.38;2.80;;;;;;;10.21;68.92;102229.16;5074316;28;20032;-81
2021/09/19 04:29:53;;;;;;;3.13;2.58;;;;;;;10.21;68.75;102234.63;5088425;28;20036;-79
2021/09/19 04:32:21;;;;;;;3.67;2.50;;;;;;;10.21;68.79;102233.78;5093592;28;20024;-80
2021/09/19 04:34:46;;;;;;;3.60;2.40;;;;;;;10.21;68.94;102233.78;5067972;28;20089;-80
2021/09/19 04:37:13;;;;;;;4.13;2.22;;;;;;;10.21;69.04;102233.78;5093035;28;20024;-79
2021/09/19 04:39:40;;;;;;;4.38;2.30;;;;;;;10.19;68.97;102228.56;5058564;28;20030;-80
2021/09/19 04:42:06;;;;;;;4.03;2.75;;;;;;;10.19;69.13;102242.19;5076741;28;20100;-80
2021/09/19 04:44:32;;;;;;;5.35;2.75;;;;;;;10.18;69.04;102235.09;5090967;28;20016;-79
2021/09/19 04:46:57;;;;;;;3.45;2.42;;;;;;;10.17;69.00;102238.88;5093165;28;20381;-79
2021/09/19 04:49:22;;;;;;;3.35;2.42;;;;;;;10.17;69.20;102238.88;5091117;28;20016;-79
2021/09/19 04:51:48;;;;;;;3.85;2.55;;;;;;;10.17;69.08;102238.88;5094644;28;20027;-79
2021/09/19 04:54:13;;;;;;;4.90;2.40;;;;;;;10.16;69.27;102242.66;5093402;28;20023;-80
2021/09/19 04:56:39;;;;;;;5.75;3.10;;;;;;;10.17;69.19;102238.03;5065745;28;20028;-80
2021/09/19 04:59:04;;;;;;;3.78;2.70;;;;;;;10.16;69.16;102236.38;5074389;28;20024;-79
2021/09/19 05:01:29;;;;;;;3.15;2.22;;;;;;;10.15;69.36;102238.28;5075105;28;20073;-80
2021/09/19 05:03:55;;;;;;;5.97;2.63;;;;;;;10.15;69.31;102240.19;5067943;28;20012;-79
2021/09/19 05:06:21;;;;;;;3.92;2.60;;;;;;;10.16;69.40;102233.66;5066425;28;20047;-80
2021/09/19 05:08:47;;;;;;;4.05;2.25;;;;;;;10.17;69.26;102232.59;5072839;28;20031;-80
2021/09/19 05:11:12;;;;;;;3.30;1.98;;;;;;;10.17;69.26;102238.88;5092333;28;20021;-79
2021/09/19 05:13:38;;;;;;;3.50;2.33;;;;;;;10.18;69.06;102237.81;5092205;28;20401;-79
2021/09/19 05:16:03;;;;;;;3.05;2.28;;;;;;;10.18;69.29;102240.53;5089112;28;20036;-80
2021/09/19 05:18:30;;;;;;;4.22;2.85;;;;;;;10.18;69.35;102237.81;5072885;28;20078;-80
2021/09/19 05:20:55;;;;;;;3.58;2.42;;;;;;;10.19;69.35;102238.63;5086061;28;20020;-80
2021/09/19 05:23:21;;;;;;;2.88;2.00;;;;;;;10.19;69.34;102244.91;5091524;28;20385;-81
2021/09/19 05:25:46;;;;;;;3.83;2.55;;;;;;;10.19;69.22;102239.47;5091549;28;20028;-80
2021/09/19 05:28:12;;;;;;;4.35;2.20;;;;;;;10.21;69.31;102242.78;5092309;28;20473;-80
2021/09/19 05:30:37;;;;;;;3.38;2.33;;;;;;;10.23;69.29;102242.56;5089442;28;20122;-80
2021/09/19 05:33:03;;;;;;;3.70;2.63;;;;;;;10.23;69.40;102237.94;5085024;28;20685;-80
2021/09/19 05:35:29;;;;;;;3.42;2.67;;;;;;;10.25;69.25;102239.59;5066893;28;20051;-80
2021/09/19 05:37:54;;;;;;;4.70;2.72;;;;;;;10.23;69.26;102240.66;5091265;28;20028;-79
2021/09/19 05:40:20;;;;;;;4.28;2.72;;;;;;;10.28;69.27;102244.59;5091206;28;20021;-79
2021/09/19 05:42:45;;;;;;;6.30;2.65;;;;;;;10.29;69.16;102243.56;5087409;28;20070;-79
2021/09/19 05:45:11;;;;;;;3.28;2.60;;;;;;;10.32;69.07;102241.19;5068500;28;20019;-80
2021/09/19 05:47:36;;;;;;;5.32;2.55;;;;;;;10.36;69.18;102244.25;5085346;28;20039;-79
2021/09/19 05:50:03;;;;;;;3.58;2.25;;;;;;;10.38;69.28;102239.41;5088219;28;20093;-80
2021/09/19 05:52:29;;;;;;;4.43;2.33;;;;;;;10.39;69.21;102241.03;5070031;28;20707;-80
2021/09/19 05:54:54;;;;;;;3.55;2.47;;;;;;;10.40;68.77;102240.81;5089816;28;20043;-79
2021/09/19 05:57:21;;;;;;;2.78;2.30;;;;;;;10.43;68.83;102247.69;5090279;28;20020;-79
2021/09/19 05:59:47;;;;;;;5.57;2.40;;;;;;;10.47;68.95;102242.59;5092505;28;20047;-80
2021/09/19 06:02:12;;;;;;;2.92;2.40;;;;;;;10.48;68.93;102245.09;5090307;28;20064;-79
2021/09/19 06:04:39;;;;;;;3.35;2.55;;;;;;;10.50;68.57;102244.84;5086690;28;20027;-79
2021/09/19 06:07:05;;;;;;;5.25;2.45;;;;;;;10.53;68.75;102241.63;5072146;28;20023;-80
2021/09/19 06:09:30;;;;;;;5.10;2.38;;;;;;;10.55;68.78;102245.78;5089781;28;20078;-79
2021/09/19 06:11:55;;;;;;;2.97;2.25;;;;;;;10.58;68.59;102242.56;5087614;28;20069;-79
2021/09/19 06:14:21;;;;;;;3.53;2.13;;;;;;;10.61;68.67;102250.31;5091053;28;20044;-79
2021/09/19 06:16:46;;;;;;;3.92;2.33;;;;;;;10.64;68.53;102252.56;5090884;28;20028;-80
2021/09/19 06:19:11;;;;;;;3.33;2.60;;;;;;;10.70;68.41;102252.69;5072510;28;20028;-80
2021/09/19 06:21:38;;;;;;;2.83;2.42;;;;;;;10.73;68.23;102247.56;5070831;28;20466;-78
2021/09/19 06:24:04;;;;;;;4.13;2.15;;;;;;;10.76;68.33;102254.44;5092998;28;20527;-79
2021/09/19 06:26:29;;;;;;;4.53;2.33;;;;;;;10.79;68.18;102256.69;5070907;28;20028;-77
2021/09/19 06:28:55;;;;;;;3.13;2.28;;;;;;;10.83;67.94;102255.13;5093549;28;20031;-76
2021/09/19 06:31:22;;;;;;;4.40;2.15;;;;;;;10.86;68.03;102257.41;5073904;28;20032;-77
2021/09/19 06:33:48;;;;;;;3.58;2.65;;;;;;;10.89;67.85;102257.75;5091132;28;20034;-76
2021/09/19 06:36:13;;;;;;;4.38;2.42;;;;;;;10.92;67.76;102261.91;5091300;28;20028;-76
2021/09/19 06:38:39;;;;;;;4.57;2.42;;;;;;;10.95;67.69;102260.59;5093514;28;20461;-76
2021/09/19 06:41:04;;;;;;;4.13;2.17;;;;;;;11.00;67.78;102258.78;5067649;28;20020;-76
2021/09/19 06:43:29;;;;;;;3.65;2.22;;;;;;;11.03;67.18;102252.84;5087031;28;20031;-80
2021/09/19 06:45:55;;;;;;;3.70;2.10;;;;;;;11.09;67.35;102261.97;5089569;28;20426;-80
2021/09/19 06:48:22;;;;;;;6.45;2.35;;;;;;;11.10;67.39;102258.16;5091035;28;20077;-79
2021/09/19 06:50:47;;;;;;;2.72;2.20;;;;;;;11.12;67.19;102256.03;5065048;28;20518;-85
2021/09/19 06:53:12;;;;;;;4.35;2.35;;;;;;;11.16;67.27;102256.38;5090747;28;20031;-86
2021/09/19 06:55:38;;;;;;;3.38;2.30;;;;;;;11.22;67.34;102252.69;5087957;28;20027;-85
2021/09/19 06:58:03;;;;;;;3.53;2.40;;;;;;;11.28;67.07;102254.44;5087201;28;20032;-87
2021/09/19 07:00:29;;;;;;;5.10;2.40;;;;;;;11.32;67.02;102255.59;5072143;28;20028;-86
2021/09/19 07:02:54;;;;;;;2.78;2.10;;;;;;;11.40;67.02;102249.75;5070730;28;20024;-86
2021/09/19 07:05:20;;;;;;;4.20;2.45;;;;;;;11.47;66.89;102258.66;5083507;28;20031;-85
2021/09/19 07:07:45;;;;;;;5.63;2.90;;;;;;;11.52;66.71;102255.19;5082376;28;20032;-85
2021/09/19 07:10:11;;;;;;;4.35;3.15;;;;;;;11.55;66.73;102254.69;5035165;28;20035;-84
2021/09/19 07:12:37;;;;;;;2.80;2.38;;;;;;;11.60;66.62;102257.53;5072557;28;20059;-83
2021/09/19 07:15:03;;;;;;;3.15;2.67;;;;;;;11.63;66.46;102261.69;5090544;28;20028;-84
2021/09/19 07:17:29;;;;;;;2.13;1.90;;;;;;;11.68;66.36;102259.03;5075192;28;20039;-83
2021/09/19 07:19:54;;;;;;;3.67;2.60;;;;;;;11.73;66.23;102268.16;5074122;28;21865;-84
2021/09/19 07:22:20;;;;;;;4.03;2.50;;;;;;;11.76;66.00;102264.13;5074789;28;20020;-84
2021/09/19 07:24:45;;;;;;;3.25;2.03;;;;;;;11.80;65.91;102273.47;5090584;28;20078;-83
2021/09/19 07:27:10;;;;;;;4.68;2.63;;;;;;;11.88;65.97;102262.16;5092747;28;20020;-83
2021/09/19 07:29:36;;;;;;;2.53;2.28;;;;;;;11.93;65.88;102275.91;5092693;28;20397;-83
2021/09/19 07:32:02;;;;;;;2.70;2.13;;;;;;;11.94;65.52;102269.38;5090501;28;20059;-84
2021/09/19 07:34:28;;;;;;;2.92;2.03;;;;;;;12.01;65.53;102273.88;5089250;28;20542;-83
2021/09/19 07:36:54;;;;;;;2.75;2.45;;;;;;;12.08;65.48;102269.06;5091059;28;20031;-82
2021/09/19 07:39:20;;;;;;;3.83;2.30;;;;;;;12.11;65.32;102279.50;5068581;28;20024;-84
2021/09/19 07:41:45;;;;;;;4.25;2.08;;;;;;;12.19;65.27;102273.63;5088775;28;20470;-82
2021/09/19 07:44:11;;;;;;;3.72;2.40;;;;;;;12.24;65.13;102278.34;5078232;28;20048;-83
2021/09/19 07:46:36;;;;;;;4.03;2.50;;;;;;;12.31;64.98;102279.03;5087069;28;20028;-84
2021/09/19 07:49:02;;;;;;;3.05;2.15;;;;;;;12.36;64.66;102287.31;5074172;28;20031;-80
2021/09/19 07:51:28;;;;;;;2.33;1.80;;;;;;;12.43;64.68;102282.47;5091077;28;20036;-80
2021/09/19 07:53:53;;;;;;;2.08;1.88;;;;;;;12.49;64.15;102278.75;5068511;28;20027;-91
2021/09/19 07:56:22;;;;;;;3.88;2.35;;;;;;;12.55;64.03;102279.66;5085460;28;20024;-83
2021/09/19 07:58:48;;;;;;;3.10;1.98;;;;;;;12.59;64.09;102284.38;5092172;28;20020;-82
2021/09/19 08:01:13;;;;;;;3.50;2.10;;;;;;;12.64;63.79;102289.09;5086274;28;20027;-77
2021/09/19 08:03:40;;;;;;;2.22;2.00;;;;;;;12.67;63.57;102283.13;5090137;28;20032;-84
2021/09/19 08:06:06;;;;;;;2.70;1.85;;;;;;;12.73;63.35;102295.78;5061830;28;20392;-84
2021/09/19 08:08:31;;;;;;;3.03;2.28;;;;;;;12.76;63.37;102292.56;5081303;28;20020;-84
2021/09/19 08:10:57;;;;;;;2.65;2.10;;;;;;;12.79;63.15;102296.69;5085591;28;20020;-83
2021/09/19 08:13:22;;;;;;;3.10;1.77;;;;;;;12.86;63.08;102295.44;5080973;28;20040;-84
2021/09/19 08:15:48;;;;;;;4.70;2.30;;;;;;;12.92;63.08;102295.53;5073197;28;20093;-83
2021/09/19 08:18:13;;;;;;;2.88;1.90;;;;;;;12.92;62.95;102288.13;5090190;28;20052;-91
2021/09/19 08:20:40;;;;;;;3.03;2.33;;;;;;;12.98;62.88;102283.56;5087697;28;20031;-81
2021/09/19 08:23:05;;;;;;;2.90;2.10;;;;;;;13.05;62.86;102289.69;5085377;28;20103;-88
2021/09/19 08:25:30;;;;;;;2.78;2.30;;;;;;;13.14;62.58;102284.59;5085537;28;20024;-84
2021/09/19 08:27:56;;;;;;;3.33;2.25;;;;;;;13.20;62.41;102287.13;5086478;28;20032;-88
2021/09/19 08:30:21;;;;;;;4.50;2.15;;;;;;;13.32;62.45;102290.59;5090860;28;20311;-85
2021/09/19 08:32:46;;;;;;;3.10;2.28;;;;;;;13.44;62.07;102289.63;5095596;28;20499;-87
2021/09/19 08:35:12;;;;;;;4.30;2.40;;;;;;;13.49;61.78;102293.25;5094508;28;20027;-84
2021/09/19 08:37:38;;;;;;;3.33;2.08;;;;;;;13.52;61.61;102286.44;5060788;28;20024;-85
2021/09/19 08:40:04;;;;;;;3.33;2.20;;;;;;;13.64;61.36;102291.78;5093406;28;20058;-84
2021/09/19 08:42:30;;;;;;;4.25;2.85;;;;;;;13.68;61.37;102276.47;5075947;28;20142;-84
2021/09/19 08:44:55;;;;;;;3.03;2.53;;;;;;;13.76;61.20;102285.06;5068328;28;20032;-84
2021/09/19 08:47:21;;;;;;;4.13;2.53;;;;;;;13.85;60.94;102288.16;5094219;28;20069;-84
2021/09/19 08:49:46;;;;;;;2.20;2.00;;;;;;;13.92;60.69;102282.47;5076614;28;20027;-84
2021/09/19 08:52:12;;;;;;;3.30;2.60;;;;;;;14.02;60.54;102281.72;5092623;28;20028;-84
2021/09/19 08:54:38;;;;;;;3.40;2.40;;;;;;;14.15;60.15;102287.63;5091800;28;20038;-84
2021/09/19 08:57:04;;;;;;;2.55;2.35;;;;;;;14.22;60.02;102281.94;5084259;28;20070;-83
2021/09/19 08:59:49;;;;;;;4.45;2.08;;;;;;;14.29;59.66;102285.25;5091300;28;20427;-83
2021/09/19 09:02:17;;;;;;;4.15;2.15;;;;;;;14.36;59.59;102282.31;5069778;28;20071;-83
2021/09/19 09:04:43;;;;;;;4.90;1.90;;;;;;;14.40;59.25;102283.44;5085871;28;20052;-83
2021/09/19 09:07:09;;;;;;;2.55;2.08;;;;;;;14.44;58.87;102279.06;5075520;28;20385;-82
2021/09/19 09:09:34;;;;;;;3.25;2.35;;;;;;;14.52;58.61;102286.84;5073028;28;20031;-83
2021/09/19 09:12:01;;;;;;;3.20;1.80;;;;;;;14.55;58.23;102280.84;5085505;28;20032;-84
2021/09/19 09:14:26;;;;;;;3.65;1.98;;;;;;;14.54;57.85;102289.31;5055310;28;20045;-85
2021/09/19 09:16:55;;;;;;;3.78;1.92;;;;;;;14.58;57.73;102283.03;5091494;28;20081;-83
2021/09/19 09:19:20;;;;;;;1.80;1.45;;;;;;;14.68;57.51;102276.81;5056188;28;20040;-83
2021/09/19 09:21:46;;;;;;;2.45;1.90;;;;;;;14.78;57.12;102278.78;5070389;28;20019;-84
2021/09/19 09:24:14;;;;;;;3.00;1.83;;;;;;;14.90;56.61;102281.34;5091904;28;20409;-83
2021/09/19 09:26:42;;;;;;;3.05;2.28;;;;;;;15.03;56.46;102276.19;5090108;28;20435;-83
2021/09/19 09:29:09;;;;;;;2.08;1.80;;;;;;;15.15;56.21;102273.19;5091115;28;20472;-81
2021/09/19 09:31:38;;;;;;;2.20;2.00;;;;;;;15.28;55.88;102277.38;5074511;28;20055;-83
2021/09/19 09:34:06;;;;;;;3.55;1.73;;;;;;;15.37;55.62;102283.19;5080230;28;20066;-83
2021/09/19 09:36:33;;;;;;;2.60;1.83;;;;;;;15.36;55.09;102276.00;5094460;28;20152;-85
2021/09/19 09:38:58;;;;;;;1.65;1.48;;;;;;;15.47;55.05;102274.97;5087814;28;20477;-84
2021/09/19 09:41:42;;;;;;;1.83;1.63;;;;;;;15.56;54.91;102275.28;5070307;28;20048;-85
2021/09/19 09:44:50;;;;;;;2.33;1.52;;;;;;;15.57;54.51;102269.47;5073487;28;20036;-85
2021/09/19 09:47:18;;;;;;;4.05;2.40;;;;;;;15.63;54.57;102273.06;4972610;28;20822;-86
2021/09/19 09:49:44;;;;;;;2.78;1.95;;;;;;;15.71;54.30;102280.81;5069358;28;20036;-84
2021/09/19 09:52:22;;;;;;;3.22;1.77;;;;;;;15.78;53.94;102275.06;5068866;28;20028;-85
2021/09/19 09:54:51;;;;;;;2.13;1.60;;;;;;;15.88;53.47;102270.41;5074934;28;20063;-84
2021/09/19 09:57:29;;;;;;;1.77;1.50;;;;;;;15.91;53.25;102278.09;5087099;28;20408;-79
2021/09/19 09:59:55;;;;;;;2.67;1.40;;;;;;;15.92;53.00;102277.00;5087007;28;20019;-79
2021/09/19 10:02:20;;;;;;;3.35;1.67;;;;;;;15.94;52.86;102272.06;5050955;28;20031;-79
2021/09/19 10:04:45;;;;;;;1.88;1.65;;;;;;;16.07;52.70;102269.84;5066954;28;20024;-79
2021/09/19 10:07:11;;;;;;;2.10;1.60;;;;;;;16.22;52.39;102269.88;5053132;28;20024;-79
2021/09/19 10:09:37;;;;;;;1.90;1.70;;;;;;;16.33;52.17;102271.50;5052087;28;20024;-79
2021/09/19 10:12:02;;;;;;;1.50;1.20;;;;;;;16.43;52.05;102266.00;5052199;28;20684;-79
2021/09/19 10:14:28;;;;;;;4.32;1.90;;;;;;;16.55;51.63;102262.13;5082702;28;20048;-79
2021/09/19 10:16:53;;;;;;;1.70;1.55;;;;;;;16.66;51.18;102263.75;5068027;28;20419;-79
2021/09/19 10:19:20;;;;;;;2.67;1.58;;;;;;;16.68;50.84;102261.56;5065587;28;20032;-79
2021/09/19 10:21:45;;;;;;;1.95;1.52;;;;;;;16.61;50.78;102261.84;5086112;28;20045;-78
2021/09/19 10:24:11;;;;;;;2.72;1.52;;;;;;;16.58;50.84;102262.38;5070748;28;20047;-79
2021/09/19 10:26:49;;;;;;;2.13;1.60;;;;;;;16.62;50.73;102262.66;5047530;28;20078;-80
2021/09/19 10:29:15;;;;;;;2.92;1.60;;;;;;;16.65;50.60;102262.09;5055577;28;20196;-79
2021/09/19 10:31:41;;;;;;;2.03;1.55;;;;;;;16.80;50.31;102264.84;5053352;28;20046;-79
2021/09/19 10:34:07;;;;;;;2.03;1.52;;;;;;;16.80;49.99;102259.31;5055027;28;20024;-78
2021/09/19 10:36:53;;;;;;;2.00;1.80;;;;;;;16.91;49.71;102253.78;5083074;28;20151;-78
2021/09/19 10:39:35;;;;;;;1.80;1.52;;;;;;;17.01;49.68;102264.78;5071638;28;20495;-79
2021/09/19 10:42:21;;;;;;;2.53;1.90;;;;;;;17.18;49.63;102251.47;5080049;28;20171;-79
2021/09/19 10:44:48;;;;;;;1.30;1.13;;;;;;;17.23;49.30;102256.97;5087343;28;20074;-78
2021/09/19 10:47:43;;;;;;;2.13;1.52;;;;;;;17.24;49.01;102253.13;5087664;28;20151;-78
2021/09/19 10:50:12;;;;;;;2.08;1.80;;;;;;;17.42;48.64;102248.06;5085837;28;21084;-79
2021/09/19 10:52:41;;;;;;;2.33;1.65;;;;;;;17.49;48.45;102245.81;5086899;28;20027;-80
2021/09/19 10:55:23;;;;;;;2.10;1.90;;;;;;;17.65;47.88;102250.13;5085148;28;20081;-79
2021/09/19 10:58:12;;;;;;;2.22;1.60;;;;;;;17.82;48.09;102240.66;5084508;28;20020;-80
2021/09/19 11:00:39;;;;;;;2.10;1.50;;;;;;;18.10;47.95;102248.16;5076656;28;20043;-79
2021/09/19 11:03:08;;;;;;;2.33;1.50;;;;;;;18.26;47.08;102248.03;5087554;28;20381;-79
2021/09/19 11:05:38;;;;;;;1.95;1.42;;;;;;;18.30;46.67;102244.38;5083578;28;20034;-79
2021/09/19 11:08:07;;;;;;;3.70;1.95;;;;;;;18.41;46.63;102247.88;5052957;28;20028;-79
2021/09/19 11:10:36;;;;;;;3.80;2.10;;;;;;;18.37;46.29;102250.41;5083834;28;20061;-79
2021/09/19 11:13:20;;;;;;;2.33;1.83;;;;;;;18.40;46.38;102246.22;5087611;28;20040;-79
2021/09/19 11:16:04;;;;;;;2.92;1.73;;;;;;;18.52;46.34;102249.41;5082730;28;20742;-79
2021/09/19 11:18:39;;;;;;;2.83;2.40;;;;;;;18.53;46.24;102244.72;5086360;28;20040;-79
2021/09/19 11:21:10;;;;;;;2.72;2.15;;;;;;;18.51;46.20;102245.00;5084189;28;20012;-79
2021/09/19 11:23:46;;;;;;;2.33;1.97;;;;;;;18.49;46.28;102244.47;5081640;28;20098;-79